sensor_id;sensor_type;location;lat;lon;timestamp;pressure;altitude;pressure_sealevel;temperature;humidity
10668;BME280;5382;42.136;24.796;2023-03-04T00:01:24;100076.16;;;4.78;100.00
10668;BME280;5382;42.136;24.796;2023-03-04T00:03:52;100081.31;;;4.80;100.00
10668;BME280;5382;42.136;24.796;2023-03-04T00:06:19;100086.81;;;4.94;100.00
10668;BME280;5382;42.136;24.796;2023-03-04T00:08:46;100091.34;;;4.91;100.00
10668;BME280;5382;42.136;24.796;2023-03-04T00:11:12;100086.16;;;4.89;100.00
10668;BME280;5382;42.136;24.796;2023-03-04T00:13:39;99954.56;;;3.85;100.00
10668;BME280;5382;42.136;24.796;2023-03-04T00:16:06;100067.66;;;4.73;100.00
10668;BME280;5382;42.136;24.796;2023-03-04T00:18:33;100069.28;;;4.57;100.00
10668;BME280;5382;42.136;24.796;2023-03-04T00:21:01;100066.16;;;4.68;100.00
10668;BME280;5382;42.136;24.796;2023-03-04T00:23:28;100004.31;;;4.45;100.00
10668;BME280;5382;42.136;24.796;2023-03-04T00:25:55;99998.38;;;4.60;100.00
10668;BME280;5382;42.136;24.796;2023-03-04T00:28:21;100037.47;;;4.65;100.00
10668;BME280;5382;42.136;24.796;2023-03-04T00:30:48;100068.94;;;5.02;100.00
10668;BME280;5382;42.136;24.796;2023-03-04T00:33:15;100086.88;;;5.12;100.00
10668;BME280;5382;42.136;24.796;2023-03-04T00:35:42;100082.19;;;4.99;100.00
10668;BME280;5382;42.136;24.796;2023-03-04T00:38:10;99993.91;;;4.23;100.00
10668;BME280;5382;42.136;24.796;2023-03-04T00:40:37;100079.22;;;4.88;100.00
10668;BME280;5382;42.136;24.796;2023-03-04T00:43:04;100042.34;;;4.72;100.00
10668;BME280;5382;42.136;24.796;2023-03-04T00:45:30;100069.59;;;4.89;100.00
10668;BME280;5382;42.136;24.796;2023-03-04T00:47:57;100065.13;;;4.91;100.00
10668;BME280;5382;42.136;24.796;2023-03-04T00:50:24;100070.56;;;4.86;100.00
10668;BME280;5382;42.136;24.796;2023-03-04T00:52:51;100069.63;;;4.87;100.00
10668;BME280;5382;42.136;24.796;2023-03-04T00:55:19;100064.84;;;4.97;100.00
10668;BME280;5382;42.136;24.796;2023-03-04T00:57:46;100045.91;;;4.90;100.00
10668;BME280;5382;42.136;24.796;2023-03-04T01:00:13;100048.88;;;5.01;100.00
10668;BME280;5382;42.136;24.796;2023-03-04T01:02:40;100074.56;;;5.14;100.00
10668;BME280;5382;42.136;24.796;2023-03-04T01:05:08;100075.19;;;5.19;100.00
10668;BME280;5382;42.136;24.796;2023-03-04T01:07:35;100036.97;;;4.94;100.00
10668;BME280;5382;42.136;24.796;2023-03-04T01:10:02;100072.78;;;5.14;100.00
10668;BME280;5382;42.136;24.796;2023-03-04T01:12:30;99946.78;;;4.23;100.00
10668;BME280;5382;42.136;24.796;2023-03-04T01:14:57;100071.41;;;4.87;100.00
10668;BME280;5382;42.136;24.796;2023-03-04T01:17:24;100071.75;;;4.79;100.00
10668;BME280;5382;42.136;24.796;2023-03-04T01:19:51;100061.91;;;4.65;100.00
10668;BME280;5382;42.136;24.796;2023-03-04T01:22:18;100063.50;;;4.49;100.00
10668;BME280;5382;42.136;24.796;2023-03-04T01:24:45;100057.22;;;4.53;100.00
10668;BME280;5382;42.136;24.796;2023-03-04T01:27:11;100057.63;;;4.23;100.00
10668;BME280;5382;42.136;24.796;2023-03-04T01:29:40;100022.97;;;3.98;100.00
10668;BME280;5382;42.136;24.796;2023-03-04T01:32:07;100049.19;;;4.17;100.00
10668;BME280;5382;42.136;24.796;2023-03-04T01:34:33;100052.53;;;4.20;100.00
10668;BME280;5382;42.136;24.796;2023-03-04T01:37:01;100055.03;;;4.03;100.00
10668;BME280;5382;42.136;24.796;2023-03-04T01:39:27;100045.41;;;4.03;100.00
10668;BME280;5382;42.136;24.796;2023-03-04T01:41:54;100049.91;;;4.20;100.00
10668;BME280;5382;42.136;24.796;2023-03-04T01:44:21;100045.13;;;4.09;100.00
10668;BME280;5382;42.136;24.796;2023-03-04T01:46:52;100029.84;;;4.00;100.00
10668;BME280;5382;42.136;24.796;2023-03-04T01:49:20;99974.91;;;3.78;100.00
10668;BME280;5382;42.136;24.796;2023-03-04T01:51:50;100039.22;;;4.25;100.00
10668;BME280;5382;42.136;24.796;2023-03-04T01:54:18;100026.78;;;4.09;100.00
10668;BME280;5382;42.136;24.796;2023-03-04T01:56:47;100042.97;;;4.40;100.00
10668;BME280;5382;42.136;24.796;2023-03-04T01:59:18;100037.56;;;4.43;100.00
10668;BME280;5382;42.136;24.796;2023-03-04T02:01:46;100010.69;;;4.39;100.00
10668;BME280;5382;42.136;24.796;2023-03-04T02:04:15;100036.69;;;4.63;100.00
10668;BME280;5382;42.136;24.796;2023-03-04T02:06:43;100042.63;;;4.66;100.00
10668;BME280;5382;42.136;24.796;2023-03-04T02:09:11;99948.94;;;4.13;100.00
10668;BME280;5382;42.136;24.796;2023-03-04T02:11:38;100025.56;;;4.76;100.00
10668;BME280;5382;42.136;24.796;2023-03-04T02:14:06;100020.03;;;4.82;100.00
10668;BME280;5382;42.136;24.796;2023-03-04T02:16:33;100021.41;;;4.91;100.00
10668;BME280;5382;42.136;24.796;2023-03-04T02:19:01;100036.22;;;5.11;100.00
10668;BME280;5382;42.136;24.796;2023-03-04T02:21:32;100009.56;;;5.01;100.00
10668;BME280;5382;42.136;24.796;2023-03-04T02:24:06;100027.25;;;5.15;100.00
10668;BME280;5382;42.136;24.796;2023-03-04T02:26:41;100031.50;;;5.18;100.00
10668;BME280;5382;42.136;24.796;2023-03-04T02:29:09;100029.34;;;5.26;100.00
10668;BME280;5382;42.136;24.796;2023-03-04T02:31:38;100016.41;;;5.23;100.00
10668;BME280;5382;42.136;24.796;2023-03-04T02:34:06;99950.03;;;4.85;100.00
10668;BME280;5382;42.136;24.796;2023-03-04T02:36:37;99980.06;;;4.96;100.00
10668;BME280;5382;42.136;24.796;2023-03-04T02:39:06;100011.78;;;5.28;100.00
10668;BME280;5382;42.136;24.796;2023-03-04T02:41:36;100008.41;;;5.07;100.00
10668;BME280;5382;42.136;24.796;2023-03-04T02:44:15;100010.41;;;5.02;100.00
10668;BME280;5382;42.136;24.796;2023-03-04T02:46:43;100019.28;;;4.80;100.00
10668;BME280;5382;42.136;24.796;2023-03-04T02:49:09;100005.44;;;4.58;100.00
10668;BME280;5382;42.136;24.796;2023-03-04T02:51:36;100008.91;;;4.58;100.00
10668;BME280;5382;42.136;24.796;2023-03-04T02:54:03;100013.44;;;4.55;100.00
10668;BME280;5382;42.136;24.796;2023-03-04T02:56:30;100016.22;;;4.52;100.00
10668;BME280;5382;42.136;24.796;2023-03-04T02:58:57;100008.34;;;4.52;100.00
10668;BME280;5382;42.136;24.796;2023-03-04T03:01:28;100007.38;;;4.54;100.00
10668;BME280;5382;42.136;24.796;2023-03-04T03:03:55;99978.00;;;4.27;100.00
10668;BME280;5382;42.136;24.796;2023-03-04T03:06:21;100006.97;;;4.43;100.00
10668;BME280;5382;42.136;24.796;2023-03-04T03:08:48;100010.00;;;4.54;100.00
10668;BME280;5382;42.136;24.796;2023-03-04T03:11:15;100013.94;;;4.63;100.00
10668;BME280;5382;42.136;24.796;2023-03-04T03:13:42;100005.16;;;4.64;100.00
10668;BME280;5382;42.136;24.796;2023-03-04T03:16:09;100035.41;;;4.71;100.00
10668;BME280;5382;42.136;24.796;2023-03-04T03:18:37;100042.00;;;4.61;100.00
10668;BME280;5382;42.136;24.796;2023-03-04T03:21:06;100047.06;;;4.45;100.00
10668;BME280;5382;42.136;24.796;2023-03-04T03:23:33;100049.28;;;4.54;100.00
10668;BME280;5382;42.136;24.796;2023-03-04T03:26:00;100045.03;;;4.52;100.00
10668;BME280;5382;42.136;24.796;2023-03-04T03:28:26;100052.38;;;4.44;100.00
10668;BME280;5382;42.136;24.796;2023-03-04T03:30:54;100032.16;;;4.27;100.00
10668;BME280;5382;42.136;24.796;2023-03-04T03:33:20;100009.78;;;4.20;100.00
10668;BME280;5382;42.136;24.796;2023-03-04T03:35:48;100004.69;;;3.96;100.00
10668;BME280;5382;42.136;24.796;2023-03-04T03:38:15;99949.78;;;3.54;100.00
10668;BME280;5382;42.136;24.796;2023-03-04T03:40:42;99996.88;;;3.74;100.00
10668;BME280;5382;42.136;24.796;2023-03-04T03:43:09;100039.84;;;3.90;100.00
10668;BME280;5382;42.136;24.796;2023-03-04T03:45:36;99970.50;;;3.38;100.00
10668;BME280;5382;42.136;24.796;2023-03-04T03:48:03;100043.94;;;3.96;100.00
10668;BME280;5382;42.136;24.796;2023-03-04T03:50:30;100058.03;;;3.93;100.00
10668;BME280;5382;42.136;24.796;2023-03-04T03:52:59;99999.50;;;3.74;100.00
10668;BME280;5382;42.136;24.796;2023-03-04T03:55:26;100033.03;;;4.07;100.00
10668;BME280;5382;42.136;24.796;2023-03-04T03:57:53;100039.31;;;4.03;100.00
10668;BME280;5382;42.136;24.796;2023-03-04T04:00:21;100041.59;;;4.10;100.00
10668;BME280;5382;42.136;24.796;2023-03-04T04:02:48;100043.16;;;4.14;100.00
10668;BME280;5382;42.136;24.796;2023-03-04T04:05:15;99982.06;;;3.75;100.00
10668;BME280;5382;42.136;24.796;2023-03-04T04:07:41;100023.53;;;4.04;100.00
10668;BME280;5382;42.136;24.796;2023-03-04T04:10:11;100041.19;;;4.20;100.00
10668;BME280;5382;42.136;24.796;2023-03-04T04:12:38;99990.94;;;3.91;100.00
10668;BME280;5382;42.136;24.796;2023-03-04T04:15:06;100022.53;;;4.07;100.00
10668;BME280;5382;42.136;24.796;2023-03-04T04:17:33;100020.53;;;3.93;100.00
10668;BME280;5382;42.136;24.796;2023-03-04T04:19:59;100035.81;;;4.02;100.00
10668;BME280;5382;42.136;24.796;2023-03-04T04:22:26;100011.16;;;3.67;100.00
10668;BME280;5382;42.136;24.796;2023-03-04T04:24:53;100040.47;;;3.75;100.00
10668;BME280;5382;42.136;24.796;2023-03-04T04:27:21;100034.63;;;3.68;100.00
10668;BME280;5382;42.136;24.796;2023-03-04T04:29:48;100054.91;;;3.63;100.00
10668;BME280;5382;42.136;24.796;2023-03-04T04:32:15;100041.81;;;3.63;100.00
10668;BME280;5382;42.136;24.796;2023-03-04T04:34:42;100057.59;;;3.62;100.00
10668;BME280;5382;42.136;24.796;2023-03-04T04:37:08;100049.94;;;3.57;100.00
10668;BME280;5382;42.136;24.796;2023-03-04T04:39:35;100048.69;;;3.66;100.00
10668;BME280;5382;42.136;24.796;2023-03-04T04:42:02;100056.72;;;3.61;100.00
10668;BME280;5382;42.136;24.796;2023-03-04T04:44:30;100050.94;;;3.53;100.00
10668;BME280;5382;42.136;24.796;2023-03-04T04:46:57;100036.97;;;3.54;100.00
10668;BME280;5382;42.136;24.796;2023-03-04T04:49:24;100007.66;;;3.24;100.00
10668;BME280;5382;42.136;24.796;2023-03-04T04:51:51;100049.56;;;3.44;100.00
10668;BME280;5382;42.136;24.796;2023-03-04T04:54:17;100053.81;;;3.47;100.00
10668;BME280;5382;42.136;24.796;2023-03-04T04:56:44;100010.94;;;3.07;100.00
10668;BME280;5382;42.136;24.796;2023-03-04T04:59:11;100068.00;;;3.41;100.00
10668;BME280;5382;42.136;24.796;2023-03-04T05:01:39;100044.03;;;3.30;100.00
10668;BME280;5382;42.136;24.796;2023-03-04T05:04:06;100080.41;;;3.36;100.00
10668;BME280;5382;42.136;24.796;2023-03-04T05:06:33;99924.97;;;2.55;100.00
10668;BME280;5382;42.136;24.796;2023-03-04T05:09:00;100059.84;;;3.27;100.00
10668;BME280;5382;42.136;24.796;2023-03-04T05:11:27;100072.69;;;3.33;100.00
10668;BME280;5382;42.136;24.796;2023-03-04T05:13:54;100071.16;;;3.27;100.00
10668;BME280;5382;42.136;24.796;2023-03-04T05:16:20;100076.06;;;3.35;100.00
10668;BME280;5382;42.136;24.796;2023-03-04T05:18:49;100035.19;;;2.89;100.00
10668;BME280;5382;42.136;24.796;2023-03-04T05:21:15;100018.06;;;2.81;100.00
10668;BME280;5382;42.136;24.796;2023-03-04T05:23:43;100067.69;;;3.27;100.00
10668;BME280;5382;42.136;24.796;2023-03-04T05:26:12;100079.66;;;3.33;100.00
10668;BME280;5382;42.136;24.796;2023-03-04T05:28:39;100083.53;;;3.22;100.00
10668;BME280;5382;42.136;24.796;2023-03-04T05:31:06;100079.28;;;3.20;100.00
10668;BME280;5382;42.136;24.796;2023-03-04T05:33:33;100088.34;;;3.11;100.00
10668;BME280;5382;42.136;24.796;2023-03-04T05:36:02;100087.38;;;3.14;100.00
10668;BME280;5382;42.136;24.796;2023-03-04T05:38:29;100025.66;;;2.88;100.00
10668;BME280;5382;42.136;24.796;2023-03-04T05:40:58;100080.88;;;3.24;100.00
10668;BME280;5382;42.136;24.796;2023-03-04T05:43:25;100046.63;;;3.08;100.00
10668;BME280;5382;42.136;24.796;2023-03-04T05:45:52;100073.59;;;3.32;100.00
10668;BME280;5382;42.136;24.796;2023-03-04T05:48:20;100051.88;;;3.08;100.00
10668;BME280;5382;42.136;24.796;2023-03-04T05:50:52;100042.28;;;2.85;100.00
10668;BME280;5382;42.136;24.796;2023-03-04T05:53:20;100093.25;;;3.20;100.00
10668;BME280;5382;42.136;24.796;2023-03-04T05:55:47;100106.66;;;3.11;100.00
10668;BME280;5382;42.136;24.796;2023-03-04T05:58:15;100101.41;;;3.11;100.00
10668;BME280;5382;42.136;24.796;2023-03-04T06:00:42;100088.59;;;3.05;100.00
10668;BME280;5382;42.136;24.796;2023-03-04T06:03:13;100096.88;;;2.93;100.00
10668;BME280;5382;42.136;24.796;2023-03-04T06:05:41;100056.84;;;2.69;100.00
10668;BME280;5382;42.136;24.796;2023-03-04T06:08:07;100107.09;;;2.99;100.00
10668;BME280;5382;42.136;24.796;2023-03-04T06:10:36;100113.66;;;3.11;100.00
10668;BME280;5382;42.136;24.796;2023-03-04T06:13:03;100036.91;;;2.66;100.00
10668;BME280;5382;42.136;24.796;2023-03-04T06:15:30;100044.44;;;2.97;100.00
10668;BME280;5382;42.136;24.796;2023-03-04T06:17:57;100106.41;;;3.41;100.00
10668;BME280;5382;42.136;24.796;2023-03-04T06:20:23;100109.25;;;3.57;100.00
10668;BME280;5382;42.136;24.796;2023-03-04T06:22:50;100072.84;;;3.50;100.00
10668;BME280;5382;42.136;24.796;2023-03-04T06:25:17;100086.00;;;3.71;100.00
10668;BME280;5382;42.136;24.796;2023-03-04T06:27:45;100102.56;;;3.92;100.00
10668;BME280;5382;42.136;24.796;2023-03-04T06:30:13;100082.94;;;3.82;100.00
10668;BME280;5382;42.136;24.796;2023-03-04T06:32:40;100103.38;;;3.94;100.00
10668;BME280;5382;42.136;24.796;2023-03-04T06:35:09;100072.53;;;3.80;100.00
10668;BME280;5382;42.136;24.796;2023-03-04T06:37:36;100124.41;;;4.13;100.00
10668;BME280;5382;42.136;24.796;2023-03-04T06:40:03;100109.47;;;4.15;100.00
10668;BME280;5382;42.136;24.796;2023-03-04T06:42:32;100118.47;;;4.50;100.00
10668;BME280;5382;42.136;24.796;2023-03-04T06:45:00;100127.75;;;4.57;100.00
10668;BME280;5382;42.136;24.796;2023-03-04T06:47:27;100117.59;;;4.70;100.00
10668;BME280;5382;42.136;24.796;2023-03-04T06:49:54;100129.16;;;4.85;100.00
10668;BME280;5382;42.136;24.796;2023-03-04T06:52:21;100123.50;;;4.94;100.00
10668;BME280;5382;42.136;24.796;2023-03-04T06:54:48;99976.25;;;4.07;100.00
10668;BME280;5382;42.136;24.796;2023-03-04T06:57:15;100121.81;;;5.12;100.00
10668;BME280;5382;42.136;24.796;2023-03-04T06:59:41;100086.50;;;5.00;100.00
10668;BME280;5382;42.136;24.796;2023-03-04T07:02:11;100128.53;;;5.37;100.00
10668;BME280;5382;42.136;24.796;2023-03-04T07:04:38;100090.78;;;5.22;100.00
10668;BME280;5382;42.136;24.796;2023-03-04T07:07:05;100140.88;;;5.54;100.00
10668;BME280;5382;42.136;24.796;2023-03-04T07:09:32;100135.75;;;5.69;100.00
10668;BME280;5382;42.136;24.796;2023-03-04T07:11:59;100131.06;;;5.76;100.00
10668;BME280;5382;42.136;24.796;2023-03-04T07:14:26;100096.84;;;5.60;100.00
10668;BME280;5382;42.136;24.796;2023-03-04T07:16:53;100095.84;;;5.63;100.00
10668;BME280;5382;42.136;24.796;2023-03-04T07:19:21;100089.38;;;5.87;100.00
10668;BME280;5382;42.136;24.796;2023-03-04T07:21:48;100070.38;;;5.82;100.00
10668;BME280;5382;42.136;24.796;2023-03-04T07:24:15;100130.53;;;6.23;100.00
10668;BME280;5382;42.136;24.796;2023-03-04T07:26:42;100124.44;;;6.23;100.00
10668;BME280;5382;42.136;24.796;2023-03-04T07:29:12;100131.63;;;6.37;100.00
10668;BME280;5382;42.136;24.796;2023-03-04T07:31:39;100109.75;;;6.36;100.00
10668;BME280;5382;42.136;24.796;2023-03-04T07:34:08;100127.53;;;6.48;100.00
10668;BME280;5382;42.136;24.796;2023-03-04T07:36:37;100051.56;;;6.09;100.00
10668;BME280;5382;42.136;24.796;2023-03-04T07:39:05;100061.22;;;6.26;100.00
10668;BME280;5382;42.136;24.796;2023-03-04T07:41:32;100118.53;;;6.52;100.00
10668;BME280;5382;42.136;24.796;2023-03-04T07:44:01;100034.56;;;6.16;100.00
10668;BME280;5382;42.136;24.796;2023-03-04T07:46:28;100114.13;;;6.53;100.00
10668;BME280;5382;42.136;24.796;2023-03-04T07:48:55;100071.78;;;6.24;100.00
10668;BME280;5382;42.136;24.796;2023-03-04T07:51:24;100054.66;;;6.17;100.00
10668;BME280;5382;42.136;24.796;2023-03-04T07:53:55;100101.38;;;6.45;100.00
10668;BME280;5382;42.136;24.796;2023-03-04T07:56:23;100102.47;;;6.59;100.00
10668;BME280;5382;42.136;24.796;2023-03-04T07:58:51;100097.34;;;6.55;100.00
10668;BME280;5382;42.136;24.796;2023-03-04T08:01:20;100098.28;;;6.37;100.00
10668;BME280;5382;42.136;24.796;2023-03-04T08:03:47;100099.53;;;6.47;100.00
10668;BME280;5382;42.136;24.796;2023-03-04T08:06:16;100096.13;;;6.45;100.00
10668;BME280;5382;42.136;24.796;2023-03-04T08:08:44;100089.16;;;6.44;100.00
10668;BME280;5382;42.136;24.796;2023-03-04T08:11:14;100097.13;;;6.43;100.00
10668;BME280;5382;42.136;24.796;2023-03-04T08:13:41;100097.34;;;6.55;100.00
10668;BME280;5382;42.136;24.796;2023-03-04T08:16:11;100096.94;;;6.63;100.00
10668;BME280;5382;42.136;24.796;2023-03-04T08:18:40;100089.03;;;6.63;100.00
10668;BME280;5382;42.136;24.796;2023-03-04T08:21:08;100099.53;;;6.81;100.00
10668;BME280;5382;42.136;24.796;2023-03-04T08:23:35;100105.16;;;6.90;100.00
10668;BME280;5382;42.136;24.796;2023-03-04T08:26:05;100091.34;;;6.87;100.00
10668;BME280;5382;42.136;24.796;2023-03-04T08:28:35;100113.84;;;7.08;100.00
10668;BME280;5382;42.136;24.796;2023-03-04T08:31:02;100109.19;;;7.13;100.00
10668;BME280;5382;42.136;24.796;2023-03-04T08:33:30;100120.56;;;7.14;100.00
10668;BME280;5382;42.136;24.796;2023-03-04T08:35:57;100114.63;;;7.26;100.00
10668;BME280;5382;42.136;24.796;2023-03-04T08:38:24;100113.03;;;7.39;100.00
10668;BME280;5382;42.136;24.796;2023-03-04T08:40:52;100099.06;;;7.53;100.00
10668;BME280;5382;42.136;24.796;2023-03-04T08:43:19;100105.94;;;7.72;100.00
10668;BME280;5382;42.136;24.796;2023-03-04T08:45:48;100105.44;;;7.81;100.00
10668;BME280;5382;42.136;24.796;2023-03-04T08:48:15;100103.13;;;7.91;100.00
10668;BME280;5382;42.136;24.796;2023-03-04T08:50:42;100095.66;;;7.83;100.00
10668;BME280;5382;42.136;24.796;2023-03-04T08:53:09;100103.25;;;8.03;100.00
10668;BME280;5382;42.136;24.796;2023-03-04T08:55:37;100100.00;;;8.14;100.00
10668;BME280;5382;42.136;24.796;2023-03-04T08:58:04;100090.97;;;8.18;100.00
10668;BME280;5382;42.136;24.796;2023-03-04T09:00:32;100098.69;;;8.51;100.00
10668;BME280;5382;42.136;24.796;2023-03-04T09:03:01;100099.56;;;8.66;100.00
10668;BME280;5382;42.136;24.796;2023-03-04T09:05:28;100092.47;;;8.67;100.00
10668;BME280;5382;42.136;24.796;2023-03-04T09:07:55;100077.97;;;8.74;100.00
10668;BME280;5382;42.136;24.796;2023-03-04T09:10:22;100098.41;;;9.13;100.00
10668;BME280;5382;42.136;24.796;2023-03-04T09:12:49;100087.75;;;9.29;100.00
10668;BME280;5382;42.136;24.796;2023-03-04T09:15:16;100096.88;;;9.38;100.00
10668;BME280;5382;42.136;24.796;2023-03-04T09:17:42;100093.66;;;9.33;100.00
10668;BME280;5382;42.136;24.796;2023-03-04T09:20:12;100078.94;;;9.43;100.00
10668;BME280;5382;42.136;24.796;2023-03-04T09:22:40;100084.28;;;9.56;100.00
10668;BME280;5382;42.136;24.796;2023-03-04T09:25:09;100068.56;;;9.67;100.00
10668;BME280;5382;42.136;24.796;2023-03-04T09:27:36;100084.13;;;9.72;100.00
10668;BME280;5382;42.136;24.796;2023-03-04T09:30:04;100077.38;;;9.80;100.00
10668;BME280;5382;42.136;24.796;2023-03-04T09:32:31;100074.59;;;10.09;100.00
10668;BME280;5382;42.136;24.796;2023-03-04T09:34:58;100055.66;;;10.02;100.00
10668;BME280;5382;42.136;24.796;2023-03-04T09:37:26;100060.66;;;10.20;100.00
10668;BME280;5382;42.136;24.796;2023-03-04T09:39:53;100062.50;;;10.32;100.00
10668;BME280;5382;42.136;24.796;2023-03-04T09:42:24;100063.69;;;10.41;100.00
10668;BME280;5382;42.136;24.796;2023-03-04T09:44:53;100054.16;;;10.51;100.00
10668;BME280;5382;42.136;24.796;2023-03-04T09:47:21;100061.03;;;10.79;100.00
10668;BME280;5382;42.136;24.796;2023-03-04T09:49:54;100053.94;;;10.80;100.00
10668;BME280;5382;42.136;24.796;2023-03-04T09:52:32;100001.41;;;10.74;100.00
10668;BME280;5382;42.136;24.796;2023-03-04T09:55:13;100060.84;;;11.43;100.00
10668;BME280;5382;42.136;24.796;2023-03-04T09:57:47;100041.31;;;11.57;100.00
10668;BME280;5382;42.136;24.796;2023-03-04T10:00:19;100052.50;;;11.61;100.00
10668;BME280;5382;42.136;24.796;2023-03-04T10:03:04;100007.94;;;11.54;100.00
10668;BME280;5382;42.136;24.796;2023-03-04T10:05:34;99962.13;;;11.52;100.00
10668;BME280;5382;42.136;24.796;2023-03-04T10:08:19;100040.16;;;11.96;100.00
10668;BME280;5382;42.136;24.796;2023-03-04T10:10:51;100058.03;;;12.06;100.00
10668;BME280;5382;42.136;24.796;2023-03-04T10:13:25;100019.00;;;11.84;100.00
10668;BME280;5382;42.136;24.796;2023-03-04T10:15:58;100044.81;;;12.17;100.00
10668;BME280;5382;42.136;24.796;2023-03-04T10:18:30;100011.63;;;12.11;100.00
10668;BME280;5382;42.136;24.796;2023-03-04T10:21:01;100036.84;;;12.28;100.00
10668;BME280;5382;42.136;24.796;2023-03-04T10:23:34;100038.28;;;12.10;100.00
10668;BME280;5382;42.136;24.796;2023-03-04T10:26:11;100005.63;;;11.85;100.00
10668;BME280;5382;42.136;24.796;2023-03-04T10:28:38;99976.41;;;11.98;100.00
10668;BME280;5382;42.136;24.796;2023-03-04T10:31:11;100004.03;;;12.18;100.00
10668;BME280;5382;42.136;24.796;2023-03-04T10:33:40;100015.38;;;12.09;100.00
10668;BME280;5382;42.136;24.796;2023-03-04T10:39:00;100001.69;;;11.91;100.00
10668;BME280;5382;42.136;24.796;2023-03-04T10:41:29;100002.56;;;12.03;100.00
10668;BME280;5382;42.136;24.796;2023-03-04T10:44:01;99996.94;;;11.83;100.00
10668;BME280;5382;42.136;24.796;2023-03-04T10:46:28;99973.97;;;11.60;100.00
10668;BME280;5382;42.136;24.796;2023-03-04T10:48:55;99994.97;;;11.98;100.00
10668;BME280;5382;42.136;24.796;2023-03-04T10:51:24;99955.22;;;11.74;100.00
10668;BME280;5382;42.136;24.796;2023-03-04T10:53:55;99900.88;;;11.33;100.00
10668;BME280;5382;42.136;24.796;2023-03-04T10:56:36;99965.78;;;11.63;100.00
10668;BME280;5382;42.136;24.796;2023-03-04T10:59:24;99977.56;;;11.58;100.00
10668;BME280;5382;42.136;24.796;2023-03-04T11:01:55;99964.47;;;11.09;100.00
10668;BME280;5382;42.136;24.796;2023-03-04T11:04:23;99974.88;;;10.99;100.00
10668;BME280;5382;42.136;24.796;2023-03-04T11:06:51;99914.06;;;10.74;100.00
10668;BME280;5382;42.136;24.796;2023-03-04T11:09:22;99884.84;;;10.51;100.00
10668;BME280;5382;42.136;24.796;2023-03-04T11:11:55;99971.25;;;11.13;100.00
10668;BME280;5382;42.136;24.796;2023-03-04T11:14:27;99880.78;;;11.06;100.00
10668;BME280;5382;42.136;24.796;2023-03-04T11:16:58;99920.91;;;11.13;100.00
10668;BME280;5382;42.136;24.796;2023-03-04T11:19:29;99926.72;;;11.53;100.00
10668;BME280;5382;42.136;24.796;2023-03-04T11:21:57;99884.06;;;11.92;100.00
10668;BME280;5382;42.136;24.796;2023-03-04T11:24:27;99846.47;;;11.98;100.00
10668;BME280;5382;42.136;24.796;2023-03-04T11:27:01;99898.44;;;12.34;100.00
10668;BME280;5382;42.136;24.796;2023-03-04T11:29:32;99832.34;;;11.75;100.00
10668;BME280;5382;42.136;24.796;2023-03-04T11:32:07;99901.19;;;11.88;100.00
10668;BME280;5382;42.136;24.796;2023-03-04T11:34:39;99872.31;;;11.25;100.00
10668;BME280;5382;42.136;24.796;2023-03-04T11:37:12;99939.75;;;11.56;100.00
10668;BME280;5382;42.136;24.796;2023-03-04T11:39:46;99885.56;;;11.25;100.00
10668;BME280;5382;42.136;24.796;2023-03-04T11:42:23;99862.50;;;11.03;100.00
10668;BME280;5382;42.136;24.796;2023-03-04T11:44:55;99899.81;;;11.35;100.00
10668;BME280;5382;42.136;24.796;2023-03-04T11:47:37;99906.94;;;11.11;100.00
10668;BME280;5382;42.136;24.796;2023-03-04T11:50:22;99766.75;;;10.13;100.00
10668;BME280;5382;42.136;24.796;2023-03-04T11:56:02;99847.63;;;11.13;100.00
10668;BME280;5382;42.136;24.796;2023-03-04T12:01:46;99874.09;;;11.13;100.00
10668;BME280;5382;42.136;24.796;2023-03-04T12:07:16;99871.97;;;11.30;100.00
10668;BME280;5382;42.136;24.796;2023-03-04T12:09:56;99841.47;;;11.13;100.00
10668;BME280;5382;42.136;24.796;2023-03-04T12:12:44;99887.69;;;12.02;100.00
10668;BME280;5382;42.136;24.796;2023-03-04T12:15:20;99879.19;;;12.76;100.00
10668;BME280;5382;42.136;24.796;2023-03-04T12:18:01;99876.78;;;13.79;100.00
10668;BME280;5382;42.136;24.796;2023-03-04T12:20:43;99847.31;;;14.82;100.00
10668;BME280;5382;42.136;24.796;2023-03-04T12:23:25;99879.88;;;16.39;100.00
10668;BME280;5382;42.136;24.796;2023-03-04T12:25:59;99862.31;;;17.09;100.00
10668;BME280;5382;42.136;24.796;2023-03-04T12:28:44;99860.84;;;17.59;100.00
10668;BME280;5382;42.136;24.796;2023-03-04T12:31:38;99853.03;;;17.65;100.00
10668;BME280;5382;42.136;24.796;2023-03-04T12:34:31;99854.81;;;17.57;100.00
10668;BME280;5382;42.136;24.796;2023-03-04T12:37:23;99859.84;;;16.98;100.00
10668;BME280;5382;42.136;24.796;2023-03-04T12:40:05;99842.34;;;16.12;100.00
10668;BME280;5382;42.136;24.796;2023-03-04T12:42:46;99845.84;;;15.66;100.00
10668;BME280;5382;42.136;24.796;2023-03-04T12:45:19;99811.28;;;14.88;100.00
10668;BME280;5382;42.136;24.796;2023-03-04T12:48:00;99800.06;;;14.25;100.00
10668;BME280;5382;42.136;24.796;2023-03-04T12:50:38;99843.38;;;13.86;100.00
10668;BME280;5382;42.136;24.796;2023-03-04T12:53:20;99834.94;;;13.60;100.00
10668;BME280;5382;42.136;24.796;2023-03-04T12:55:53;99796.75;;;13.30;100.00
10668;BME280;5382;42.136;24.796;2023-03-04T12:58:24;99824.66;;;13.46;100.00
10668;BME280;5382;42.136;24.796;2023-03-04T13:00:57;99824.59;;;13.57;100.00
10668;BME280;5382;42.136;24.796;2023-03-04T13:03:36;99819.28;;;13.57;100.00
10668;BME280;5382;42.136;24.796;2023-03-04T13:06:13;99811.81;;;13.72;100.00
10668;BME280;5382;42.136;24.796;2023-03-04T13:08:52;99807.94;;;13.86;100.00
10668;BME280;5382;42.136;24.796;2023-03-04T13:11:44;99806.81;;;13.79;100.00
10668;BME280;5382;42.136;24.796;2023-03-04T13:14:28;99802.44;;;14.08;100.00